Fort Worth, TX (76135)

1:38 AM CST on December 08, 2016 (GMT -0600)
Bowfin Drive | | Change Station

Elev 767 ft 32.85 °N, 97.41 °W | Updated 10 minutes ago

Overcast
Overcast
39.0 °F
Feels Like 39 °F
N
1.9
Wind Variable Wind from NW
Gusts 4.3 mph

Today
High -- | Low -- °F
--% Chance of Precip.
Yesterday
High -- | Low -- °F
Precip. -- in
Pressure 30.37 in
Visibility 10.0 miles
Clouds Overcast 2200 ft
Windchill 39 °F
Dew Point 30 °F
Humidity 71%
Rainfall 0.00 in
Snow Depth Not available.
7:20 AM 5:23 PM
First Quarter, 60% visible
METAR KNFW 080652Z AUTO 02018G22KT 10SM OVC022 04/00 A3043 RMK AO2 PK WND 01028/0620 SLP283 T00440000 $
Pressure 30.37 in
Visibility 10.0 miles
Clouds Overcast 2200 ft
Windchill 39 °F
Dew Point 30 °F
Humidity 71%
Rainfall 0.00 in
Snow Depth Not available.
7:20 AM 5:23 PM
First Quarter, 60% visible
METAR KNFW 080652Z AUTO 02018G22KT 10SM OVC022 04/00 A3043 RMK AO2 PK WND 01028/0620 SLP283 T00440000 $

10-Day Weather Forecast

Almanac

Astronomy

Dec. 08, 2016 Rise Set
Actual Time
Civil Twilight
Nautical Twilight
Astronomical Twilight
Moon
Length of Visible Light
Length of Day
Tomorrow will be .
, % of the Moon is Illuminated

Today's Extremes

State Highs State Lows

Community

WunderPhotos

Upload Photos

1,956,259 photos uploaded!

WunderBlog® & News

Nearby

Air Quality

  Air Quality AQ Index Pollutant
Not available.

Snow Depth

Station Depth Elevation

Earthquake Activity

City Distance Mag. Time & Date
Minimum magnitude displayed is 2.5.

Coastal Water Temperatures

Place Temperature

Stations

Nearby Weather Stations

Station Location Temp. Windchill Dew Point Humidity Wind Precip. Elev Updated Type
                   

Watches & Warnings

There are currently no watches in effect.